Time;durP1;ratioP1;P1;durP2;ratioP2;P2;SDS_P1;SDS_P2;PMS_P1;PMS_P2;Temp;Humidity;BMP_temperature;BMP_pressure;BME280_temperature;BME280_humidity;BME280_pressure;Samples;Min_cycle;Max_cycle;Signal;HPM_P1;HPM_P2
2024/03/29 00:02:18;;;;;;;2.23;0.70;;;7.60;99.90;;;;;;4862290;29;20676;-88
2024/03/29 00:04:44;;;;;;;3.63;0.90;;;7.60;99.90;;;;;;4862217;29;20319;-90
2024/03/29 00:07:09;;;;;;;1.70;0.90;;;7.60;99.90;;;;;;4862430;29;20188;-93
2024/03/29 00:09:35;;;;;;;3.63;0.70;;;7.60;99.90;;;;;;4851995;29;20200;-88
2024/03/29 00:12:01;;;;;;;2.30;0.93;;;7.60;99.90;;;;;;4863829;29;20183;-87
2024/03/29 00:14:27;;;;;;;1.13;0.67;;;7.60;99.90;;;;;;4863462;29;20192;-87
2024/03/29 00:16:52;;;;;;;2.23;0.80;;;7.50;99.90;;;;;;4858188;29;20188;-85
2024/03/29 00:19:18;;;;;;;5.13;0.80;;;7.50;99.90;;;;;;4863053;29;20529;-88
2024/03/29 00:21:49;;;;;;;0.80;0.60;;;7.50;99.90;;;;;;4845372;29;20196;-85
2024/03/29 00:24:14;;;;;;;2.37;0.60;;;7.50;99.90;;;;;;4844686;29;20552;-89
2024/03/29 00:26:40;;;;;;;1.83;0.77;;;7.50;99.90;;;;;;4842502;29;20185;-88
2024/03/29 00:29:06;;;;;;;2.00;0.77;;;7.50;99.90;;;;;;4844767;29;20699;-88
2024/03/29 00:31:32;;;;;;;2.10;0.70;;;7.40;99.90;;;;;;4859098;29;20224;-90
2024/03/29 00:33:58;;;;;;;1.40;0.60;;;7.50;99.90;;;;;;5272339;23;22641;-87
2024/03/29 00:36:24;;;;;;;1.90;0.60;;;7.40;99.90;;;;;;4862300;29;20708;-87
2024/03/29 00:38:49;;;;;;;1.57;0.93;;;7.40;99.90;;;;;;4846810;29;20185;-87
2024/03/29 00:41:15;;;;;;;3.20;0.80;;;7.40;99.90;;;;;;4863091;29;20624;-88
2024/03/29 00:43:41;;;;;;;1.87;0.70;;;7.30;99.90;;;;;;4853091;29;20300;-86
2024/03/29 00:46:11;;;;;;;3.30;0.63;;;7.30;99.90;;;;;;4828381;29;20181;-87
2024/03/29 00:48:37;;;;;;;2.93;0.70;;;7.30;99.90;;;;;;4843412;29;20184;-86
2024/03/29 00:51:03;;;;;;;2.93;0.60;;;7.30;99.90;;;;;;4846078;29;20620;-87
2024/03/29 00:53:29;;;;;;;1.60;0.67;;;7.30;99.90;;;;;;4846476;29;20209;-88
2024/03/29 00:55:55;;;;;;;1.60;0.90;;;7.30;99.90;;;;;;4862637;29;20188;-87
2024/03/29 00:58:21;;;;;;;0.60;0.60;;;7.30;99.90;;;;;;4838931;29;20543;-87
2024/03/29 01:00:47;;;;;;;1.67;0.70;;;7.30;99.90;;;;;;4831877;29;20556;-87
2024/03/29 01:03:12;;;;;;;2.70;0.93;;;7.30;99.90;;;;;;4847000;29;20219;-88
2024/03/29 01:05:46;;;;;;;2.53;0.70;;;7.20;99.90;;;;;;4847928;29;20221;-87
2024/03/29 01:08:12;;;;;;;3.77;0.80;;;7.30;99.90;;;;;;4831718;29;20193;-86
2024/03/29 01:10:37;;;;;;;1.43;0.80;;;7.20;99.90;;;;;;4831717;29;20192;-86
2024/03/29 01:13:03;;;;;;;2.60;0.80;;;7.30;99.90;;;;;;4848014;29;20216;-87
2024/03/29 01:15:30;;;;;;;3.30;0.80;;;7.20;99.90;;;;;;4831580;29;20177;-86
2024/03/29 01:17:57;;;;;;;5.87;1.20;;;7.20;99.90;;;;;;4831737;29;20221;-87
2024/03/29 01:20:23;;;;;;;3.13;1.13;;;7.20;99.90;;;;;;4847712;29;20242;-87
2024/03/29 01:22:48;;;;;;;4.10;1.00;;;7.20;99.90;;;;;;4831209;29;20227;-86
2024/03/29 01:25:17;;;;;;;2.13;0.73;;;7.20;99.90;;;;;;4831307;29;20232;-85
2024/03/29 01:27:43;;;;;;;2.50;0.80;;;7.20;99.90;;;;;;4847720;29;20185;-86
2024/03/29 01:30:09;;;;;;;2.33;1.20;;;7.20;99.90;;;;;;4831285;29;20193;-85
2024/03/29 01:32:34;;;;;;;4.17;0.97;;;7.10;99.90;;;;;;4831061;29;20562;-87
2024/03/29 01:35:00;;;;;;;2.07;0.80;;;7.10;99.90;;;;;;4846217;29;20247;-87
2024/03/29 01:37:32;;;;;;;2.10;0.80;;;7.00;99.90;;;;;;4831141;29;20189;-86
2024/03/29 01:39:58;;;;;;;3.03;1.10;;;7.00;99.90;;;;;;4847666;29;20161;-86
2024/03/29 01:42:24;;;;;;;2.63;0.70;;;7.00;99.90;;;;;;4831274;29;20217;-87
2024/03/29 01:44:49;;;;;;;2.30;0.67;;;7.00;99.90;;;;;;4831215;29;20249;-88
2024/03/29 01:47:17;;;;;;;2.53;0.60;;;7.00;99.90;;;;;;4837008;29;20181;-86
2024/03/29 01:49:45;;;;;;;2.23;0.80;;;6.90;99.90;;;;;;4841200;29;20192;-86
2024/03/29 01:52:14;;;;;;;2.93;0.70;;;7.00;99.90;;;;;;4849464;29;20742;-86
2024/03/29 01:54:40;;;;;;;2.47;1.00;;;7.00;99.90;;;;;;4849192;29;20196;-88
2024/03/29 01:57:07;;;;;;;2.77;0.77;;;6.90;99.90;;;;;;4865798;29;20184;-86
2024/03/29 01:59:34;;;;;;;1.60;0.90;;;6.90;99.90;;;;;;4848655;29;20180;-87
2024/03/29 02:02:00;;;;;;;3.03;0.80;;;6.90;99.90;;;;;;4845373;29;20184;-86
2024/03/29 02:04:27;;;;;;;1.63;0.63;;;7.00;99.90;;;;;;4830477;29;20270;-86
2024/03/29 02:07:07;;;;;;;4.90;0.70;;;6.90;99.90;;;;;;4830636;29;20694;-87
2024/03/29 02:09:32;;;;;;;2.93;0.77;;;6.90;99.90;;;;;;4830539;29;20189;-89
2024/03/29 02:11:58;;;;;;;7.63;1.23;;;6.90;99.90;;;;;;4830767;29;20678;-87
2024/03/29 02:14:24;;;;;;;5.13;1.20;;;6.90;99.90;;;;;;4830548;29;20629;-90
2024/03/29 02:16:52;;;;;;;4.20;1.20;;;6.90;99.90;;;;;;4847389;29;20220;-88
2024/03/29 02:19:17;;;;;;;3.57;1.03;;;6.90;99.90;;;;;;4834010;29;20220;-86
2024/03/29 02:21:48;;;;;;;3.57;0.90;;;6.90;99.90;;;;;;4830405;29;20627;-86
2024/03/29 02:24:16;;;;;;;2.07;0.97;;;6.90;99.90;;;;;;4830384;29;20257;-88
2024/03/29 02:26:44;;;;;;;2.50;1.00;;;6.90;99.90;;;;;;4830515;29;20309;-86
2024/03/29 02:29:10;;;;;;;8.23;1.13;;;7.00;99.90;;;;;;4830548;29;20185;-88
2024/03/29 02:31:36;;;;;;;3.20;0.90;;;7.00;99.90;;;;;;4847798;29;20189;-86
2024/03/29 02:34:02;;;;;;;4.27;0.90;;;6.90;99.90;;;;;;4848580;29;20268;-86
2024/03/29 02:36:32;;;;;;;5.13;0.83;;;6.90;99.90;;;;;;4848370;29;20196;-87
2024/03/29 02:38:58;;;;;;;1.57;0.70;;;7.00;99.90;;;;;;4848839;29;20263;-86
2024/03/29 02:41:26;;;;;;;2.47;0.93;;;6.90;99.90;;;;;;4865243;29;20184;-90
2024/03/29 02:43:51;;;;;;;3.37;0.90;;;6.90;99.90;;;;;;4843297;29;20228;-88
2024/03/29 02:46:18;;;;;;;2.80;0.90;;;6.90;99.90;;;;;;4827285;29;20178;-90
2024/03/29 02:48:44;;;;;;;2.37;1.10;;;6.80;99.90;;;;;;4828232;29;20174;-89
2024/03/29 02:51:09;;;;;;;5.47;0.83;;;6.80;99.90;;;;;;4826835;29;20208;-91
2024/03/29 02:53:35;;;;;;;2.13;0.70;;;6.80;99.90;;;;;;4827058;29;20626;-89
2024/03/29 02:56:02;;;;;;;4.17;1.20;;;6.90;99.90;;;;;;4827138;29;20182;-89
2024/03/29 02:58:27;;;;;;;2.23;0.70;;;6.80;99.90;;;;;;4811913;29;20186;-89
2024/03/29 03:00:53;;;;;;;2.10;0.70;;;6.90;99.90;;;;;;4811928;29;20289;-87
2024/03/29 03:03:19;;;;;;;2.67;0.80;;;6.80;99.90;;;;;;4826937;29;20253;-89
2024/03/29 03:05:44;;;;;;;2.47;1.00;;;6.90;99.90;;;;;;4826799;29;20182;-88
2024/03/29 03:11:25;;;;;;;4.63;0.93;;;6.80;99.90;;;;;;4825156;29;20198;-89
2024/03/29 03:13:50;;;;;;;2.57;0.53;;;6.90;99.90;;;;;;4842609;29;20193;-90
2024/03/29 03:16:19;;;;;;;3.83;1.00;;;6.80;99.90;;;;;;4848343;29;20232;-89
2024/03/29 03:18:45;;;;;;;1.87;0.50;;;6.80;99.90;;;;;;4848327;29;20189;-89
2024/03/29 03:21:10;;;;;;;5.57;0.83;;;6.90;99.90;;;;;;4847748;29;20703;-89
2024/03/29 03:23:36;;;;;;;5.43;0.83;;;6.90;99.90;;;;;;4847928;29;20239;-89
2024/03/29 03:26:06;;;;;;;3.07;0.80;;;6.90;99.90;;;;;;4848152;29;20271;-90
2024/03/29 03:28:54;;;;;;;4.70;0.73;;;6.90;99.90;;;;;;4847832;29;20275;-90
2024/03/29 03:31:20;;;;;;;2.53;1.00;;;7.00;99.90;;;;;;4847996;29;20192;-91
2024/03/29 03:33:46;;;;;;;3.43;0.80;;;7.00;99.90;;;;;;4847487;29;20184;-91
2024/03/29 03:36:12;;;;;;;2.13;0.93;;;7.00;99.90;;;;;;4847417;29;20181;-88
2024/03/29 03:38:39;;;;;;;2.30;0.60;;;6.90;99.90;;;;;;4847507;29;20177;-89
2024/03/29 03:41:05;;;;;;;3.93;0.77;;;6.80;99.90;;;;;;4847551;29;20297;-89
2024/03/29 03:43:31;;;;;;;3.73;0.70;;;6.80;99.90;;;;;;4847541;29;20311;-90
2024/03/29 03:46:01;;;;;;;5.03;1.07;;;6.80;99.90;;;;;;4863910;29;20272;-89
2024/03/29 03:48:29;;;;;;;3.00;0.70;;;6.80;99.90;;;;;;4864244;29;20259;-90
2024/03/29 03:50:55;;;;;;;1.73;0.60;;;6.80;99.90;;;;;;4847236;29;20321;-89
2024/03/29 03:53:21;;;;;;;5.47;0.90;;;6.80;99.90;;;;;;4862906;29;20283;-88
2024/03/29 03:55:47;;;;;;;2.10;0.60;;;6.80;99.90;;;;;;4863770;29;20263;-89
2024/03/29 03:58:17;;;;;;;3.57;0.90;;;6.80;99.90;;;;;;4847562;29;20199;-87
2024/03/29 04:00:43;;;;;;;2.87;0.80;;;6.80;99.90;;;;;;4847340;29;20188;-88
2024/03/29 04:03:09;;;;;;;3.40;0.90;;;6.80;99.90;;;;;;4847335;29;20221;-89
2024/03/29 04:05:37;;;;;;;3.07;0.70;;;6.70;99.90;;;;;;4846964;29;20268;-89
2024/03/29 04:08:05;;;;;;;3.80;0.80;;;6.70;99.90;;;;;;4847107;29;20624;-89
2024/03/29 04:10:31;;;;;;;4.10;0.83;;;6.70;99.90;;;;;;4847158;29;20169;-88
2024/03/29 04:12:56;;;;;;;2.00;0.60;;;6.80;99.90;;;;;;4853706;29;20192;-89
2024/03/29 04:15:22;;;;;;;2.37;0.63;;;6.80;99.90;;;;;;4845164;29;20242;-91
2024/03/29 04:17:48;;;;;;;1.53;0.70;;;6.90;99.90;;;;;;4828809;29;20243;-90
2024/03/29 04:20:13;;;;;;;2.40;0.60;;;6.90;99.90;;;;;;4828611;29;20209;-90
2024/03/29 04:22:39;;;;;;;4.47;0.80;;;7.00;99.90;;;;;;4828794;29;20225;-90
2024/03/29 04:25:05;;;;;;;2.00;0.77;;;7.00;99.90;;;;;;4829003;29;20625;-90
2024/03/29 04:27:31;;;;;;;4.47;0.97;;;7.00;99.90;;;;;;4828184;29;20562;-89
2024/03/29 04:29:56;;;;;;;2.57;0.70;;;7.00;99.90;;;;;;4828075;29;20181;-90
2024/03/29 04:32:22;;;;;;;2.43;0.83;;;6.90;99.90;;;;;;4828147;29;20189;-88
2024/03/29 04:34:49;;;;;;;3.10;0.67;;;7.00;99.90;;;;;;4828087;29;20233;-88
2024/03/29 04:37:20;;;;;;;2.83;0.60;;;6.90;99.90;;;;;;4828418;29;20213;-88
2024/03/29 04:39:46;;;;;;;2.20;0.77;;;6.90;99.90;;;;;;4828632;29;20177;-90
2024/03/29 04:42:12;;;;;;;4.93;0.80;;;6.90;99.90;;;;;;4828481;29;20532;-90
2024/03/29 04:44:39;;;;;;;5.23;0.80;;;6.90;99.90;;;;;;4843820;29;20540;-90
2024/03/29 04:47:05;;;;;;;3.67;0.67;;;6.90;99.90;;;;;;4828415;29;20178;-92
2024/03/29 04:49:36;;;;;;;1.53;0.60;;;6.90;99.90;;;;;;4843458;29;20212;-90
2024/03/29 04:52:05;;;;;;;3.43;0.70;;;6.90;99.90;;;;;;4843305;29;20173;-88
2024/03/29 04:54:31;;;;;;;1.20;0.70;;;6.80;99.90;;;;;;4828243;29;20181;-89
2024/03/29 04:56:56;;;;;;;4.27;0.90;;;6.80;99.90;;;;;;4843368;29;20189;-88
2024/03/29 04:59:23;;;;;;;2.63;0.80;;;6.80;99.90;;;;;;4843404;29;20284;-89
2024/03/29 05:01:53;;;;;;;2.63;0.70;;;6.80;99.90;;;;;;4844717;29;20169;-91
2024/03/29 05:04:27;;;;;;;1.37;0.70;;;6.80;99.90;;;;;;4843325;29;20216;-91
2024/03/29 05:06:57;;;;;;;5.70;1.00;;;6.80;99.90;;;;;;4828006;29;20237;-92
2024/03/29 05:09:43;;;;;;;5.30;0.80;;;6.80;99.90;;;;;;4828232;29;20193;-89
2024/03/29 05:12:09;;;;;;;2.60;0.80;;;6.80;99.90;;;;;;4844458;29;20204;-89
2024/03/29 05:14:34;;;;;;;3.27;0.60;;;6.70;99.90;;;;;;4828036;29;20181;-89
2024/03/29 05:17:00;;;;;;;3.07;1.03;;;6.70;99.90;;;;;;4828213;29;20216;-90
2024/03/29 05:19:36;;;;;;;3.87;0.60;;;6.80;99.90;;;;;;4828059;29;20645;-90
2024/03/29 05:22:02;;;;;;;3.33;0.83;;;6.80;99.90;;;;;;4827857;29;20652;-91
2024/03/29 05:24:27;;;;;;;4.00;1.00;;;6.80;99.90;;;;;;4828062;29;20308;-90
2024/03/29 05:26:53;;;;;;;1.90;0.70;;;6.90;99.90;;;;;;4828329;29;20185;-90
2024/03/29 05:29:20;;;;;;;2.93;0.50;;;6.90;99.90;;;;;;4828013;29;20185;-90
2024/03/29 05:31:46;;;;;;;1.37;0.50;;;6.90;99.90;;;;;;4844504;29;20207;-89
2024/03/29 05:34:11;;;;;;;1.70;0.60;;;7.00;99.90;;;;;;4827772;29;20233;-88
2024/03/29 05:36:37;;;;;;;2.57;0.63;;;7.00;99.90;;;;;;4860051;29;20192;-89
2024/03/29 05:39:03;;;;;;;2.63;0.87;;;7.00;99.90;;;;;;4860817;29;20197;-87
2024/03/29 05:41:30;;;;;;;3.70;1.10;;;7.00;99.90;;;;;;4862364;29;20169;-87
2024/03/29 05:43:56;;;;;;;4.23;1.13;;;7.10;99.90;;;;;;4830822;29;20243;-87
2024/03/29 05:46:21;;;;;;;3.30;0.73;;;7.10;99.90;;;;;;4831306;29;20614;-86
2024/03/29 05:48:53;;;;;;;3.57;0.83;;;7.10;99.90;;;;;;4831045;29;20644;-86
2024/03/29 05:51:19;;;;;;;2.53;0.73;;;7.10;99.90;;;;;;4830795;29;20330;-87
2024/03/29 05:53:45;;;;;;;4.40;0.97;;;7.20;99.90;;;;;;4830966;29;20221;-87
2024/03/29 05:56:11;;;;;;;2.77;0.83;;;7.20;99.90;;;;;;4830898;29;20181;-87
2024/03/29 05:58:37;;;;;;;5.50;0.90;;;7.30;99.90;;;;;;4830938;29;20202;-89
2024/03/29 06:01:03;;;;;;;1.87;0.80;;;7.30;99.90;;;;;;4830779;29;20683;-86
2024/03/29 06:03:29;;;;;;;5.20;1.40;;;7.40;99.90;;;;;;4830757;29;20225;-86
2024/03/29 06:05:55;;;;;;;3.37;1.10;;;7.40;99.90;;;;;;4830664;29;20226;-88
2024/03/29 06:08:23;;;;;;;3.23;0.90;;;7.60;99.90;;;;;;4830949;29;20209;-88
2024/03/29 06:10:49;;;;;;;2.83;1.37;;;7.70;99.90;;;;;;4830934;29;20185;-86
2024/03/29 06:13:29;;;;;;;6.50;1.30;;;7.90;99.90;;;;;;4830793;29;20193;-88
2024/03/29 06:18:42;;;;;;;2.22;0.80;;;8.00;99.90;;;;;;4847303;29;20185;-87
2024/03/29 06:21:08;;;;;;;2.83;0.63;;;8.00;99.90;;;;;;4830407;29;20185;-87
2024/03/29 06:23:34;;;;;;;3.87;0.93;;;7.90;99.90;;;;;;4847097;29;20236;-86
2024/03/29 06:26:01;;;;;;;3.17;1.00;;;7.90;99.90;;;;;;4830482;29;20207;-87
2024/03/29 06:28:28;;;;;;;4.23;0.80;;;7.90;99.90;;;;;;4830822;29;20212;-86
2024/03/29 06:30:54;;;;;;;4.00;0.70;;;7.80;99.90;;;;;;4830487;29;20610;-88
2024/03/29 06:33:20;;;;;;;1.60;0.73;;;7.80;99.90;;;;;;4830490;29;20196;-88
2024/03/29 06:35:53;;;;;;;2.83;0.77;;;7.70;99.90;;;;;;4830062;29;20237;-87
2024/03/29 06:38:20;;;;;;;3.07;1.13;;;7.70;99.90;;;;;;4830319;29;20192;-87
2024/03/29 06:40:46;;;;;;;1.37;0.83;;;7.70;99.90;;;;;;4846610;29;20170;-86
2024/03/29 06:43:12;;;;;;;4.90;1.10;;;7.60;99.90;;;;;;4830251;29;20213;-86
2024/03/29 06:45:44;;;;;;;5.10;0.97;;;7.60;99.90;;;;;;4830390;29;20246;-88
2024/03/29 06:48:11;;;;;;;2.47;1.00;;;7.60;99.90;;;;;;4829059;29;20185;-87
2024/03/29 06:50:40;;;;;;;2.00;0.83;;;7.60;99.90;;;;;;4826906;29;20286;-86
2024/03/29 06:53:08;;;;;;;1.67;0.90;;;7.60;99.90;;;;;;4837415;29;20272;-88
2024/03/29 06:55:36;;;;;;;2.70;1.00;;;7.60;99.90;;;;;;4840943;29;20196;-86
2024/03/29 06:58:02;;;;;;;1.83;0.87;;;7.60;99.90;;;;;;4835124;29;20193;-89
2024/03/29 07:00:30;;;;;;;3.93;0.70;;;7.60;99.90;;;;;;4829628;29;20193;-85
2024/03/29 07:02:55;;;;;;;4.97;1.30;;;7.60;99.90;;;;;;4829851;29;20307;-86
2024/03/29 07:05:21;;;;;;;1.30;0.67;;;7.70;99.90;;;;;;4829422;29;20232;-85
2024/03/29 07:07:47;;;;;;;2.60;0.55;;;7.70;99.90;;;;;;4845951;29;20186;-88
2024/03/29 07:10:16;;;;;;;5.13;0.70;;;7.70;99.90;;;;;;4829666;29;20613;-88
2024/03/29 07:12:42;;;;;;;2.63;0.60;;;7.80;99.90;;;;;;4829777;29;20268;-90
2024/03/29 07:15:08;;;;;;;2.83;0.85;;;7.80;99.90;;;;;;4832739;29;20212;-91
2024/03/29 07:17:34;;;;;;;1.27;0.75;;;7.80;99.90;;;;;;4847866;29;20215;-87
2024/03/29 07:19:59;;;;;;;4.00;0.50;;;7.80;99.90;;;;;;4847699;29;20185;-90
2024/03/29 07:22:25;;;;;;;4.00;0.67;;;7.90;99.90;;;;;;4831406;29;20238;-85
2024/03/29 07:25:04;;;;;;;1.38;0.68;;;7.90;99.90;;;;;;4833869;29;20245;-91
2024/03/29 07:27:33;;;;;;;1.92;0.93;;;7.90;99.90;;;;;;4856886;29;20173;-90
2024/03/29 07:30:00;;;;;;;1.90;0.60;;;7.90;99.90;;;;;;4847658;29;20184;-86
2024/03/29 07:32:26;;;;;;;1.77;0.80;;;8.00;99.90;;;;;;4847688;29;20177;-87
2024/03/29 07:34:51;;;;;;;2.05;1.00;;;8.00;99.90;;;;;;4847473;29;20243;-86
2024/03/29 07:37:18;;;;;;;2.53;0.80;;;8.00;99.90;;;;;;4847455;29;20583;-92
2024/03/29 07:39:46;;;;;;;1.65;0.60;;;8.00;99.90;;;;;;4863003;29;20617;-87
2024/03/29 07:42:12;;;;;;;4.78;1.00;;;8.00;99.90;;;;;;4847550;29;20181;-85
2024/03/29 07:44:38;;;;;;;2.58;0.60;;;8.00;99.90;;;;;;4847337;29;20232;-89
2024/03/29 07:47:03;;;;;;;1.42;0.60;;;8.10;99.90;;;;;;4840728;29;20189;-88
2024/03/29 07:49:42;;;;;;;1.90;0.90;;;8.20;99.90;;;;;;4829081;29;20208;-86
2024/03/29 07:52:09;;;;;;;3.35;0.93;;;8.30;99.90;;;;;;4841217;29;20905;-86
2024/03/29 07:54:35;;;;;;;2.63;0.85;;;8.30;99.90;;;;;;4859483;29;20257;-90
2024/03/29 07:57:01;;;;;;;3.17;0.93;;;8.40;99.90;;;;;;4829015;29;20205;-88
2024/03/29 07:59:29;;;;;;;4.57;1.02;;;8.40;99.90;;;;;;4829124;29;20268;-93
2024/03/29 08:01:55;;;;;;;1.42;0.70;;;8.40;99.90;;;;;;4845382;29;20181;-86
2024/03/29 08:04:21;;;;;;;1.77;0.60;;;8.50;99.90;;;;;;4828949;29;20221;-91
2024/03/29 08:06:47;;;;;;;1.85;0.80;;;8.50;99.90;;;;;;4827878;29;20185;-87
2024/03/29 08:09:13;;;;;;;1.85;0.80;;;8.50;99.90;;;;;;4828713;29;20197;-92
2024/03/29 08:11:40;;;;;;;3.85;0.80;;;8.50;99.90;;;;;;4828679;29;20185;-92
2024/03/29 08:14:06;;;;;;;1.88;0.63;;;8.40;99.90;;;;;;4828683;29;20186;-88
2024/03/29 08:16:31;;;;;;;1.50;0.60;;;8.50;99.90;;;;;;4829011;29;20694;-91
2024/03/29 08:18:58;;;;;;;2.00;0.60;;;8.50;99.90;;;;;;4828616;29;20268;-88
2024/03/29 08:21:27;;;;;;;1.85;0.70;;;8.50;99.90;;;;;;4828418;29;20196;-91
2024/03/29 08:23:54;;;;;;;1.85;0.85;;;8.60;99.90;;;;;;4845103;29;20255;-91
2024/03/29 08:26:21;;;;;;;1.88;0.90;;;8.80;99.90;;;;;;4828837;29;20177;-94
2024/03/29 08:28:46;;;;;;;2.97;0.70;;;8.90;99.90;;;;;;4828876;29;20516;-87
2024/03/29 08:31:13;;;;;;;2.88;0.90;;;9.00;99.90;;;;;;4858421;29;20185;-87
2024/03/29 08:33:39;;;;;;;3.13;1.30;;;9.10;99.90;;;;;;4858697;29;20769;-89
2024/03/29 08:36:08;;;;;;;3.47;0.70;;;9.10;99.90;;;;;;4828868;29;20181;-93
2024/03/29 08:38:34;;;;;;;3.15;1.00;;;9.30;99.90;;;;;;4845707;29;20181;-94
2024/03/29 08:41:00;;;;;;;1.75;0.60;;;9.40;99.90;;;;;;4831164;29;20188;-90
2024/03/29 08:43:29;;;;;;;1.48;0.60;;;9.50;99.90;;;;;;4832308;29;20213;-92
2024/03/29 08:45:54;;;;;;;2.33;0.73;;;9.70;99.90;;;;;;4831547;29;20185;-90
2024/03/29 08:48:22;;;;;;;1.52;0.70;;;9.90;99.90;;;;;;4830232;29;20182;-92
2024/03/29 08:50:50;;;;;;;1.00;0.60;;;10.00;99.90;;;;;;4829885;29;20191;-93
2024/03/29 08:53:15;;;;;;;1.88;0.60;;;10.10;99.90;;;;;;4830200;29;20182;-94
2024/03/29 08:55:41;;;;;;;1.38;0.47;;;10.20;99.90;;;;;;4844931;29;20654;-89
2024/03/29 08:58:06;;;;;;;2.78;0.60;;;10.40;99.90;;;;;;4844994;29;20181;-91
2024/03/29 09:00:35;;;;;;;1.10;0.45;;;10.50;99.90;;;;;;4840506;29;20194;-88
2024/03/29 09:03:01;;;;;;;1.85;0.45;;;10.60;99.90;;;;;;4825616;29;20209;-87
2024/03/29 09:05:30;;;;;;;1.02;0.40;;;10.60;99.90;;;;;;4828619;29;20185;-94
2024/03/29 09:07:57;;;;;;;3.33;0.50;;;10.70;99.90;;;;;;4828563;29;20212;-89
2024/03/29 09:10:31;;;;;;;1.00;0.50;;;10.70;99.90;;;;;;4828040;29;20782;-88
2024/03/29 09:12:57;;;;;;;0.68;0.40;;;10.70;99.90;;;;;;4844102;29;20617;-90
2024/03/29 09:15:23;;;;;;;1.83;0.50;;;10.70;99.90;;;;;;4844462;29;20192;-91
2024/03/29 09:17:49;;;;;;;0.77;0.45;;;10.60;99.90;;;;;;4861750;29;20192;-89
2024/03/29 09:20:15;;;;;;;1.85;0.70;;;10.60;99.90;;;;;;4862003;29;20185;-87
2024/03/29 09:22:51;;;;;;;1.50;0.60;;;10.60;99.90;;;;;;4831562;29;20185;-87
2024/03/29 09:25:16;;;;;;;2.00;0.68;;;10.50;99.90;;;;;;4831409;29;20576;-93
2024/03/29 09:27:52;;;;;;;1.00;0.68;;;10.50;99.90;;;;;;4862629;29;20252;-89
2024/03/29 09:30:19;;;;;;;2.20;0.85;;;10.40;99.90;;;;;;4868814;29;20655;-93
2024/03/29 09:32:45;;;;;;;0.80;0.50;;;10.50;99.90;;;;;;4850270;29;20193;-96
2024/03/29 09:35:11;;;;;;;1.10;0.50;;;10.50;99.90;;;;;;4843342;29;20236;-92
2024/03/29 09:37:37;;;;;;;9.00;0.82;;;10.50;99.90;;;;;;4831779;29;20185;-90
2024/03/29 09:40:04;;;;;;;3.00;1.00;;;10.50;99.90;;;;;;4831647;29;20185;-94
2024/03/29 09:42:38;;;;;;;1.50;0.50;;;10.50;99.90;;;;;;4831868;29;20573;-93
2024/03/29 09:45:05;;;;;;;0.80;0.50;;;10.60;99.90;;;;;;4831833;29;20193;-94
2024/03/29 09:47:32;;;;;;;1.52;0.43;;;10.70;99.90;;;;;;4831912;29;20237;-94
2024/03/29 09:50:06;;;;;;;1.38;0.60;;;10.70;99.90;;;;;;4830906;29;20182;-93
2024/03/29 09:52:36;;;;;;;1.75;0.70;;;10.70;99.90;;;;;;4831151;29;20185;-94
2024/03/29 09:55:02;;;;;;;1.20;0.73;;;10.70;99.90;;;;;;4831076;29;20208;-94
2024/03/29 09:57:31;;;;;;;2.25;0.80;;;10.70;99.90;;;;;;4830928;29;20649;-94
2024/03/29 09:59:57;;;;;;;2.25;0.70;;;10.70;99.90;;;;;;4831631;29;20593;-95
2024/03/29 10:02:30;;;;;;;1.70;0.70;;;10.70;99.90;;;;;;4831140;29;20646;-90
2024/03/29 10:04:57;;;;;;;4.10;0.90;;;10.80;99.90;;;;;;4831036;29;20197;-92
2024/03/29 10:07:24;;;;;;;0.98;0.55;;;10.80;99.90;;;;;;4830997;29;20285;-92
2024/03/29 10:09:51;;;;;;;0.82;0.50;;;10.80;99.90;;;;;;4830885;29;20211;-94
2024/03/29 10:12:20;;;;;;;4.43;0.65;;;10.80;99.90;;;;;;4830777;29;20356;-96
2024/03/29 10:14:52;;;;;;;1.95;0.50;;;10.70;99.90;;;;;;4830940;29;20179;-92
2024/03/29 10:17:19;;;;;;;1.58;0.50;;;10.80;99.90;;;;;;4831667;29;20185;-91
2024/03/29 10:19:45;;;;;;;1.25;0.52;;;10.90;99.90;;;;;;4830803;29;20191;-90
2024/03/29 10:22:13;;;;;;;1.08;0.57;;;10.90;99.90;;;;;;4830830;29;20185;-93
2024/03/29 10:24:39;;;;;;;2.58;0.63;;;10.90;99.90;;;;;;4830796;29;20213;-92
2024/03/29 10:27:06;;;;;;;0.70;0.52;;;10.90;99.90;;;;;;4830365;29;20198;-91
2024/03/29 10:29:31;;;;;;;1.08;0.47;;;11.00;99.90;;;;;;4830338;29;20630;-89
2024/03/29 10:32:01;;;;;;;0.60;0.50;;;11.10;99.90;;;;;;4830541;29;20185;-91
2024/03/29 10:34:33;;;;;;;0.55;0.45;;;11.20;99.90;;;;;;4830178;29;20240;-92
2024/03/29 10:37:00;;;;;;;1.50;0.30;;;11.30;99.90;;;;;;4830521;29;20190;-93
2024/03/29 10:39:28;;;;;;;0.50;0.40;;;11.50;99.90;;;;;;4830303;29;20178;-91
2024/03/29 10:41:57;;;;;;;2.72;0.88;;;11.70;99.90;;;;;;4847105;29;20523;-91
2024/03/29 10:44:23;;;;;;;1.35;0.50;;;11.90;99.90;;;;;;4829876;29;20213;-90
2024/03/29 10:46:52;;;;;;;0.32;0.30;;;12.10;99.90;;;;;;4830387;29;20184;-92
2024/03/29 10:49:19;;;;;;;0.80;0.50;;;12.10;99.90;;;;;;4830271;29;20286;-88
2024/03/29 10:51:44;;;;;;;0.63;0.40;;;12.30;99.90;;;;;;4846629;29;20649;-89
2024/03/29 10:54:17;;;;;;;0.55;0.40;;;12.40;99.90;;;;;;4830304;29;20193;-90
2024/03/29 10:56:47;;;;;;;0.50;0.40;;;12.40;99.90;;;;;;4827157;29;20178;-90
2024/03/29 10:59:37;;;;;;;0.50;0.45;;;12.50;99.90;;;;;;4842576;29;20326;-91
2024/03/29 11:02:18;;;;;;;0.77;0.45;;;12.50;99.90;;;;;;4850408;29;20197;-90
2024/03/29 11:04:47;;;;;;;0.45;0.40;;;12.70;99.90;;;;;;4846247;29;20217;-90
2024/03/29 11:07:20;;;;;;;1.52;0.70;;;12.90;99.90;;;;;;4830214;29;20192;-90
2024/03/29 11:09:52;;;;;;;0.52;0.38;;;13.00;99.90;;;;;;4830240;29;20177;-93
2024/03/29 11:12:20;;;;;;;0.90;0.60;;;13.10;99.90;;;;;;4830446;29;20185;-89
2024/03/29 11:14:51;;;;;;;0.77;0.60;;;13.40;99.90;;;;;;4859042;29;20281;-92
2024/03/29 11:17:18;;;;;;;0.63;0.50;;;13.60;99.90;;;;;;4830287;29;20532;-88
2024/03/29 11:19:44;;;;;;;0.70;0.40;;;13.50;99.90;;;;;;4829862;29;20245;-92
2024/03/29 11:22:11;;;;;;;0.90;0.55;;;13.40;99.90;;;;;;4815033;29;20193;-93
2024/03/29 11:24:41;;;;;;;0.95;0.40;;;13.30;99.90;;;;;;4829526;29;20219;-93
2024/03/29 11:27:10;;;;;;;0.85;0.40;;;13.20;99.90;;;;;;4839508;29;20200;-90
2024/03/29 11:29:40;;;;;;;1.33;0.60;;;13.20;99.90;;;;;;4835886;29;20534;-92
2024/03/29 11:32:06;;;;;;;0.77;0.52;;;13.20;99.90;;;;;;4844611;29;20177;-89
2024/03/29 11:34:32;;;;;;;1.50;0.60;;;13.20;99.90;;;;;;4828439;29;20221;-89
2024/03/29 11:37:11;;;;;;;1.10;0.70;;;13.20;99.90;;;;;;4829655;29;20189;-88
2024/03/29 11:39:37;;;;;;;1.50;0.80;;;13.10;99.90;;;;;;4829851;29;20212;-92
2024/03/29 11:42:03;;;;;;;2.75;0.98;;;13.00;99.90;;;;;;4828481;29;20189;-90
2024/03/29 11:44:33;;;;;;;1.88;0.95;;;12.80;99.90;;;;;;4829537;29;20217;-88
2024/03/29 11:47:00;;;;;;;3.33;0.90;;;12.80;99.90;;;;;;4829810;29;20174;-92
2024/03/29 11:49:25;;;;;;;1.65;1.00;;;12.80;99.90;;;;;;4830187;29;20267;-89
2024/03/29 11:52:01;;;;;;;1.88;0.90;;;12.90;99.90;;;;;;4845485;29;20205;-92
2024/03/29 11:54:27;;;;;;;1.45;0.70;;;13.00;99.90;;;;;;4829213;29;20184;-91
2024/03/29 11:56:52;;;;;;;1.63;0.70;;;13.10;99.90;;;;;;4859249;29;20215;-91
2024/03/29 11:59:20;;;;;;;1.73;0.90;;;13.10;99.90;;;;;;4828828;29;20185;-88
2024/03/29 12:01:47;;;;;;;3.83;0.85;;;13.20;99.90;;;;;;4828967;29;20189;-88
2024/03/29 12:04:22;;;;;;;2.00;0.95;;;13.20;99.90;;;;;;4845756;29;20383;-89
2024/03/29 12:06:49;;;;;;;2.53;1.20;;;13.30;99.90;;;;;;4859255;29;20299;-89
2024/03/29 12:09:15;;;;;;;3.38;1.02;;;13.40;99.90;;;;;;4828970;29;20625;-87
2024/03/29 12:11:45;;;;;;;1.02;0.60;;;13.40;99.90;;;;;;4828945;29;20186;-89
2024/03/29 12:14:16;;;;;;;1.65;0.73;;;13.60;99.90;;;;;;4829026;29;20189;-90
2024/03/29 12:16:46;;;;;;;1.45;0.70;;;13.60;99.90;;;;;;4828911;29;20185;-88
2024/03/29 12:19:27;;;;;;;3.47;0.80;;;13.50;99.90;;;;;;4842054;29;20193;-88
2024/03/29 12:21:53;;;;;;;2.08;0.88;;;13.40;99.90;;;;;;4859688;29;20321;-89
2024/03/29 12:24:21;;;;;;;1.08;0.70;;;13.40;99.90;;;;;;4844189;29;20682;-88
2024/03/29 12:26:49;;;;;;;2.97;1.10;;;13.40;99.90;;;;;;4846370;29;20202;-89
2024/03/29 12:29:16;;;;;;;1.48;0.77;;;13.40;99.90;;;;;;4846980;29;20635;-90
2024/03/29 12:31:41;;;;;;;2.05;0.80;;;13.40;99.90;;;;;;4846995;29;20187;-90
2024/03/29 12:34:07;;;;;;;1.40;0.70;;;13.40;99.90;;;;;;4846411;29;20275;-89
2024/03/29 12:36:33;;;;;;;1.25;0.90;;;13.50;99.90;;;;;;4836668;29;20205;-91
2024/03/29 12:39:02;;;;;;;4.07;0.93;;;13.60;99.90;;;;;;4828650;29;20210;-90
2024/03/29 12:41:32;;;;;;;1.75;0.80;;;13.70;99.90;;;;;;4828257;29;20234;-90
2024/03/29 12:44:06;;;;;;;2.47;0.90;;;13.70;99.90;;;;;;4828015;29;20265;-90
2024/03/29 12:46:32;;;;;;;1.50;0.70;;;13.70;99.90;;;;;;4828822;29;20543;-89
2024/03/29 12:49:01;;;;;;;2.53;0.90;;;13.70;99.90;;;;;;4828220;29;20190;-89
2024/03/29 12:51:30;;;;;;;0.75;0.50;;;13.70;99.90;;;;;;4830420;29;20187;-89
2024/03/29 12:54:12;;;;;;;2.72;0.65;;;13.60;99.90;;;;;;4828424;29;20185;-89
2024/03/29 12:56:40;;;;;;;1.73;0.80;;;13.60;99.90;;;;;;4828190;29;20268;-91
2024/03/29 12:59:06;;;;;;;2.75;0.90;;;13.60;99.90;;;;;;4828423;29;20288;-90
2024/03/29 13:01:32;;;;;;;1.77;0.82;;;13.60;99.90;;;;;;4828485;29;20648;-88